createdAt,value
2023-03-03T00:01:46.955Z,1.27
2023-03-03T00:04:14.498Z,1.31
2023-03-03T00:06:41.964Z,1.28
2023-03-03T00:09:09.437Z,1.28
2023-03-03T00:11:36.898Z,1.25
2023-03-03T00:14:18.826Z,1.33
2023-03-03T00:16:47.527Z,1.26
2023-03-03T00:19:17.724Z,1.29
2023-03-03T00:21:51.249Z,1.31
2023-03-03T00:24:27.109Z,1.34
2023-03-03T00:26:57.270Z,1.33
2023-03-03T00:29:24.743Z,1.42
2023-03-03T00:31:52.603Z,1.41
2023-03-03T00:34:28.344Z,1.49
2023-03-03T00:36:57.632Z,1.47
2023-03-03T00:39:32.208Z,1.57
2023-03-03T00:42:00.730Z,1.53
2023-03-03T00:44:34.234Z,1.54
2023-03-03T00:47:31.979Z,1.57
2023-03-03T00:50:05.952Z,1.59
2023-03-03T00:52:39.703Z,1.51
2023-03-03T00:55:08.757Z,1.39
2023-03-03T00:57:36.218Z,1.42
2023-03-03T01:00:06.427Z,1.41
2023-03-03T01:02:34.427Z,1.39
2023-03-03T01:05:01.923Z,1.39
2023-03-03T01:07:30.287Z,1.44
2023-03-03T01:09:57.826Z,1.44
2023-03-03T01:12:25.282Z,1.43
2023-03-03T01:14:55.023Z,1.44
2023-03-03T01:17:23.001Z,1.42
2023-03-03T01:19:50.478Z,1.40
2023-03-03T01:22:18.488Z,1.42
2023-03-03T01:24:45.940Z,1.42
2023-03-03T01:27:13.456Z,1.38
2023-03-03T01:29:40.931Z,1.36
2023-03-03T01:32:08.586Z,1.26
2023-03-03T01:34:36.066Z,1.29
2023-03-03T01:37:03.774Z,1.24
2023-03-03T01:39:31.248Z,1.28
2023-03-03T01:41:58.836Z,1.18
2023-03-03T01:44:27.348Z,1.25
2023-03-03T01:47:03.350Z,1.26
2023-03-03T01:49:39.987Z,1.33
2023-03-03T01:52:24.820Z,1.32
2023-03-03T01:54:57.155Z,1.43
2023-03-03T01:57:38.849Z,1.36
2023-03-03T02:00:07.485Z,1.43
2023-03-03T02:02:42.238Z,1.40
2023-03-03T02:05:10.898Z,1.33
2023-03-03T02:07:39.153Z,1.34
2023-03-03T02:10:12.410Z,1.36
2023-03-03T02:12:56.381Z,1.43
2023-03-03T02:15:28.315Z,1.44
2023-03-03T02:18:11.288Z,1.46
2023-03-03T02:20:42.177Z,1.45
2023-03-03T02:23:27.287Z,1.44
2023-03-03T02:25:59.193Z,1.48
2023-03-03T02:28:33.518Z,1.47
2023-03-03T02:31:11.023Z,1.41
2023-03-03T02:33:41.042Z,1.41
2023-03-03T02:36:21.972Z,1.47
2023-03-03T02:39:30.624Z,1.51
2023-03-03T02:42:03.969Z,1.40
2023-03-03T02:44:38.702Z,1.34
2023-03-03T02:47:06.272Z,1.26
2023-03-03T02:49:35.725Z,1.27
2023-03-03T02:52:09.900Z,1.27
2023-03-03T02:54:39.691Z,1.35
2023-03-03T02:57:09.112Z,1.41
2023-03-03T02:59:36.679Z,1.42
2023-03-03T03:02:12.158Z,1.49
2023-03-03T03:04:39.758Z,1.48
2023-03-03T03:07:07.349Z,1.52
2023-03-03T03:09:37.575Z,1.49
2023-03-03T03:12:05.528Z,1.52
2023-03-03T03:14:35.750Z,1.53
2023-03-03T03:17:03.345Z,1.53
2023-03-03T03:19:30.933Z,1.51
2023-03-03T03:22:01.809Z,1.57
2023-03-03T03:24:30.543Z,1.62
2023-03-03T03:27:03.114Z,1.61
2023-03-03T03:29:30.645Z,1.62
2023-03-03T03:31:58.274Z,1.58
2023-03-03T03:34:25.754Z,1.61
2023-03-03T03:36:54.860Z,1.59
2023-03-03T03:39:24.202Z,1.56
2023-03-03T03:41:53.479Z,1.56
2023-03-03T03:44:24.005Z,1.55
2023-03-03T03:46:52.304Z,1.52
2023-03-03T03:49:20.974Z,1.47
2023-03-03T03:51:50.827Z,1.45
2023-03-03T03:54:21.178Z,1.48
2023-03-03T03:56:50.012Z,1.46
2023-03-03T03:59:17.523Z,1.52
2023-03-03T04:01:45.110Z,1.53
2023-03-03T04:04:12.735Z,1.51
2023-03-03T04:06:41.008Z,1.50
2023-03-03T04:09:08.866Z,1.44
2023-03-03T04:11:36.574Z,1.44
2023-03-03T04:14:06.886Z,1.46
2023-03-03T04:16:36.308Z,1.49
2023-03-03T04:19:04.391Z,1.49
2023-03-03T04:21:34.039Z,1.52
2023-03-03T04:24:03.016Z,1.52
2023-03-03T04:26:31.782Z,1.52
2023-03-03T04:29:01.826Z,1.50
2023-03-03T04:31:30.257Z,1.47
2023-03-03T04:33:58.924Z,1.49
2023-03-03T04:36:27.453Z,1.51
2023-03-03T04:38:55.058Z,1.51
2023-03-03T04:41:24.113Z,1.53
2023-03-03T04:43:51.774Z,1.58
2023-03-03T04:46:19.336Z,1.56
2023-03-03T04:48:46.969Z,1.54
2023-03-03T04:51:18.830Z,1.56
2023-03-03T04:53:46.724Z,1.52
2023-03-03T04:56:15.245Z,1.52
2023-03-03T04:58:43.073Z,1.51
2023-03-03T05:01:17.095Z,1.49
2023-03-03T05:03:45.846Z,1.51
2023-03-03T05:06:13.355Z,1.53
2023-03-03T05:08:43.234Z,1.58
2023-03-03T05:11:11.469Z,1.55
2023-03-03T05:13:39.025Z,1.53
2023-03-03T05:16:07.036Z,1.58
2023-03-03T05:18:34.659Z,1.61
2023-03-03T05:21:02.327Z,1.67
2023-03-03T05:23:30.767Z,1.63
2023-03-03T05:25:58.342Z,1.68
2023-03-03T05:28:25.870Z,1.69
2023-03-03T05:30:53.584Z,1.78
2023-03-03T05:33:21.175Z,1.74
2023-03-03T05:35:53.359Z,1.76
2023-03-03T05:38:21.096Z,1.73
2023-03-03T05:40:48.815Z,1.77
2023-03-03T05:43:16.385Z,1.84
2023-03-03T05:45:44.074Z,1.87
2023-03-03T05:48:12.132Z,1.87
2023-03-03T05:50:40.099Z,1.89
2023-03-03T05:53:07.823Z,1.94
2023-03-03T05:55:35.439Z,1.98
2023-03-03T05:58:02.901Z,2.00
2023-03-03T06:00:30.454Z,1.99
2023-03-03T06:02:58.199Z,2.03
2023-03-03T06:05:26.053Z,2.13
2023-03-03T06:07:53.576Z,2.16
2023-03-03T06:10:21.198Z,2.22
2023-03-03T06:12:52.921Z,2.39
2023-03-03T06:15:20.498Z,2.38
2023-03-03T06:17:48.015Z,2.41
2023-03-03T06:20:15.541Z,2.41
2023-03-03T06:22:43.233Z,2.38
2023-03-03T06:25:10.915Z,2.43
2023-03-03T06:27:38.532Z,2.43
2023-03-03T06:30:06.685Z,2.50
2023-03-03T06:32:34.212Z,2.56
2023-03-03T06:35:01.927Z,2.64
2023-03-03T06:37:29.508Z,2.64
2023-03-03T06:39:57.042Z,2.72
2023-03-03T06:42:25.026Z,2.82
2023-03-03T06:44:55.161Z,2.82
2023-03-03T06:47:22.998Z,2.81
2023-03-03T06:49:50.454Z,2.88
2023-03-03T06:52:23.006Z,2.99
2023-03-03T06:54:54.922Z,3.03
2023-03-03T06:57:31.497Z,3.12
2023-03-03T07:00:25.990Z,3.18
2023-03-03T07:03:01.381Z,3.13
2023-03-03T07:05:29.466Z,3.13
2023-03-03T07:07:57.561Z,3.11
2023-03-03T07:10:28.094Z,3.02
2023-03-03T07:13:01.373Z,2.97
2023-03-03T07:15:36.220Z,2.96
2023-03-03T07:18:10.975Z,3.01
2023-03-03T07:20:41.539Z,2.98
2023-03-03T07:23:25.349Z,2.95
2023-03-03T07:25:53.649Z,2.87
2023-03-03T07:28:23.744Z,2.84
2023-03-03T07:30:56.597Z,2.84
2023-03-03T07:33:38.018Z,2.91
2023-03-03T07:36:22.518Z,2.85
2023-03-03T07:39:02.264Z,2.91
2023-03-03T07:41:30.940Z,2.86
2023-03-03T07:44:19.188Z,2.99
2023-03-03T07:46:51.625Z,3.05
2023-03-03T07:49:40.082Z,3.13
2023-03-03T07:52:31.406Z,3.23
2023-03-03T07:55:38.941Z,3.20
2023-03-03T07:58:16.578Z,3.09
2023-03-03T08:01:05.906Z,3.15
2023-03-03T08:03:37.132Z,3.23
2023-03-03T08:06:29.980Z,3.40
2023-03-03T08:09:10.153Z,3.35
2023-03-03T08:11:48.774Z,3.36
2023-03-03T08:14:19.831Z,3.45
2023-03-03T08:16:47.336Z,3.63
2023-03-03T08:19:18.597Z,3.90
2023-03-03T08:21:46.604Z,4.15
2023-03-03T08:24:14.339Z,4.29
2023-03-03T08:26:41.919Z,4.31
2023-03-03T08:29:12.080Z,4.22
2023-03-03T08:31:41.944Z,4.23
2023-03-03T08:34:09.735Z,4.24
2023-03-03T08:36:37.249Z,4.24
2023-03-03T08:39:05.500Z,4.37
2023-03-03T08:41:33.328Z,4.55
2023-03-03T08:44:00.750Z,4.64
2023-03-03T08:46:28.817Z,4.73
2023-03-03T08:49:54.884Z,4.92
2023-03-03T08:56:22.363Z,4.58
2023-03-03T09:04:01.919Z,4.89
2023-03-03T09:06:30.082Z,4.83
2023-03-03T09:08:57.554Z,4.76
2023-03-03T09:11:28.265Z,4.74
2023-03-03T09:14:14.753Z,4.84
2023-03-03T09:16:52.309Z,4.99
2023-03-03T09:19:30.918Z,4.97
2023-03-03T09:22:20.267Z,4.95
2023-03-03T09:24:49.484Z,4.87
2023-03-03T09:27:25.514Z,5.16
2023-03-03T09:29:53.102Z,5.39
2023-03-03T09:32:39.648Z,5.48
2023-03-03T09:35:40.464Z,5.71
2023-03-03T09:38:32.431Z,5.94
2023-03-03T09:41:28.626Z,5.92
2023-03-03T09:44:17.694Z,5.80
2023-03-03T09:46:51.327Z,5.74
2023-03-03T09:49:57.164Z,5.73
2023-03-03T09:53:00.135Z,5.50
2023-03-03T09:55:49.081Z,5.34
2023-03-03T09:58:19.589Z,5.33
2023-03-03T10:00:56.283Z,5.45
2023-03-03T10:04:08.941Z,5.66
2023-03-03T10:06:45.326Z,5.53
2023-03-03T10:09:31.729Z,5.65
2023-03-03T10:12:04.984Z,5.59
2023-03-03T10:14:38.636Z,5.62
2023-03-03T10:17:32.412Z,5.59
2023-03-03T10:20:54.756Z,5.54
2023-03-03T10:23:40.919Z,5.54
2023-03-03T10:26:44.347Z,5.36
2023-03-03T10:29:37.116Z,5.50
2023-03-03T10:33:00.270Z,5.86
2023-03-03T10:36:04.705Z,6.24
2023-03-03T10:38:56.907Z,7.75
2023-03-03T10:41:39.591Z,9.52
2023-03-03T10:44:22.165Z,10.05
2023-03-03T10:47:08.447Z,9.31
2023-03-03T10:50:05.910Z,8.47
2023-03-03T10:52:43.172Z,7.47
2023-03-03T10:55:16.827Z,6.79
2023-03-03T10:57:47.179Z,6.29
2023-03-03T11:00:50.514Z,6.02
2023-03-03T11:03:33.605Z,5.72
2023-03-03T11:06:16.187Z,5.44
2023-03-03T11:08:50.053Z,5.18
2023-03-03T11:11:35.369Z,5.09
2023-03-03T11:14:16.697Z,5.11
2023-03-03T11:17:04.211Z,5.13
2023-03-03T11:19:40.975Z,5.35
2023-03-03T11:22:25.499Z,5.47
2023-03-03T11:24:56.095Z,5.56
2023-03-03T11:27:44.978Z,5.53
2023-03-03T11:30:27.186Z,5.38
2023-03-03T11:33:15.613Z,5.32
2023-03-03T11:35:47.433Z,5.02
2023-03-03T11:38:36.713Z,4.88
2023-03-03T11:41:31.173Z,4.68
2023-03-03T11:44:05.844Z,4.71
2023-03-03T11:46:57.254Z,4.87
2023-03-03T11:49:33.737Z,4.79
2023-03-03T11:52:13.318Z,4.84
2023-03-03T11:54:54.076Z,4.82
2023-03-03T11:58:01.191Z,4.86
2023-03-03T12:00:40.210Z,4.99
2023-03-03T12:04:05.213Z,5.33
2023-03-03T12:06:56.031Z,5.23
2023-03-03T12:10:01.650Z,5.21
2023-03-03T12:12:38.492Z,5.10
2023-03-03T12:15:38.582Z,5.16
2023-03-03T12:18:45.958Z,5.12
2023-03-03T12:21:45.448Z,5.32
2023-03-03T12:24:27.929Z,5.69
2023-03-03T12:27:23.040Z,5.81
2023-03-03T12:30:38.817Z,5.68
2023-03-03T12:33:38.868Z,5.42
2023-03-03T12:36:31.130Z,5.21
2023-03-03T12:39:13.751Z,4.97
2023-03-03T12:42:06.408Z,4.94
2023-03-03T12:45:06.398Z,4.81
2023-03-03T12:47:39.473Z,4.63
2023-03-03T12:50:19.479Z,4.56
2023-03-03T12:53:02.870Z,4.53
2023-03-03T12:55:53.728Z,4.46
2023-03-03T12:58:24.266Z,4.31
2023-03-03T13:01:18.978Z,4.34
2023-03-03T13:04:08.073Z,4.33
2023-03-03T13:06:51.154Z,4.29
2023-03-03T13:09:40.232Z,4.32
2023-03-03T13:12:15.102Z,4.36
2023-03-03T13:14:51.652Z,4.38
2023-03-03T13:17:31.280Z,4.33
2023-03-03T13:20:01.582Z,4.34
2023-03-03T13:22:52.811Z,4.49
2023-03-03T13:25:23.409Z,4.41
2023-03-03T13:27:56.631Z,4.37
2023-03-03T13:30:28.203Z,4.31
2023-03-03T13:33:25.090Z,4.32
2023-03-03T13:36:11.369Z,4.23
2023-03-03T13:38:46.532Z,4.16
2023-03-03T13:41:26.170Z,4.12
2023-03-03T13:44:13.166Z,4.09
2023-03-03T13:46:55.953Z,4.13
2023-03-03T13:49:58.070Z,4.08
2023-03-03T13:52:32.209Z,4.05
2023-03-03T13:55:09.512Z,4.03
2023-03-03T13:57:40.055Z,3.99
2023-03-03T14:00:22.815Z,4.01
2023-03-03T14:03:19.637Z,4.06
2023-03-03T14:06:02.944Z,3.94
2023-03-03T14:09:12.677Z,4.00
2023-03-03T14:11:47.994Z,3.90
2023-03-03T14:14:18.639Z,3.85
2023-03-03T14:17:01.692Z,3.89
2023-03-03T14:19:39.716Z,3.86
2023-03-03T14:22:25.267Z,3.86
2023-03-03T14:25:11.215Z,3.87
2023-03-03T14:28:00.698Z,3.83
2023-03-03T14:30:35.232Z,3.78
2023-03-03T14:33:08.742Z,3.81
2023-03-03T14:35:39.314Z,3.71
2023-03-03T14:38:14.669Z,3.63
2023-03-03T14:40:45.582Z,3.50
2023-03-03T14:43:33.596Z,3.53
2023-03-03T14:46:20.943Z,3.63
2023-03-03T14:48:56.601Z,3.40
2023-03-03T14:51:38.752Z,3.32
2023-03-03T14:54:15.172Z,3.29
2023-03-03T14:56:59.043Z,3.33
2023-03-03T14:59:28.516Z,3.26
2023-03-03T15:02:18.288Z,3.29
2023-03-03T15:04:47.080Z,3.17
2023-03-03T15:07:35.590Z,3.14
2023-03-03T15:10:07.730Z,3.02
2023-03-03T15:12:42.431Z,3.11
2023-03-03T15:15:21.685Z,3.12
2023-03-03T15:17:54.220Z,3.10
2023-03-03T15:20:32.297Z,3.10
2023-03-03T15:23:27.348Z,3.18
2023-03-03T15:25:56.524Z,3.12
2023-03-03T15:28:44.572Z,3.18
2023-03-03T15:31:49.384Z,3.18
2023-03-03T15:34:28.405Z,3.19
2023-03-03T15:37:29.953Z,3.27
2023-03-03T15:40:04.047Z,3.19
2023-03-03T15:42:53.049Z,3.22
2023-03-03T15:45:32.879Z,3.21
2023-03-03T15:48:00.376Z,3.14
2023-03-03T15:50:57.100Z,3.19
2023-03-03T15:54:14.285Z,3.20
2023-03-03T15:57:04.545Z,3.17
2023-03-03T15:59:51.173Z,3.21
2023-03-03T16:02:24.459Z,3.14
2023-03-03T16:05:22.564Z,3.13
2023-03-03T16:08:02.179Z,3.02
2023-03-03T16:10:37.846Z,3.02
2023-03-03T16:13:42.972Z,3.11
2023-03-03T16:16:23.904Z,3.06
2023-03-03T16:18:51.468Z,3.04
2023-03-03T16:21:22.100Z,3.03
2023-03-03T16:23:59.238Z,3.11
2023-03-03T16:26:37.954Z,3.08
2023-03-03T16:29:35.160Z,3.14
2023-03-03T16:32:06.993Z,3.03
2023-03-03T16:34:46.596Z,3.02
2023-03-03T16:37:36.307Z,3.09
2023-03-03T16:40:20.448Z,3.06
2023-03-03T16:42:53.249Z,2.99
2023-03-03T16:45:26.737Z,2.97
2023-03-03T16:47:57.495Z,2.99
2023-03-03T16:50:49.974Z,3.04
2023-03-03T16:53:34.644Z,3.04
2023-03-03T16:56:08.493Z,3.08
2023-03-03T16:58:51.003Z,3.11
2023-03-03T17:01:27.645Z,3.08
2023-03-03T17:04:10.903Z,3.05
2023-03-03T17:06:54.790Z,2.93
2023-03-03T17:09:51.939Z,2.96
2023-03-03T17:12:48.258Z,2.89
2023-03-03T17:15:37.626Z,2.77
2023-03-03T17:18:38.895Z,2.77
2023-03-03T17:21:32.461Z,2.68
2023-03-03T17:24:18.532Z,2.57
2023-03-03T17:26:56.270Z,2.54
2023-03-03T17:29:44.617Z,2.51
2023-03-03T17:32:51.127Z,2.63
2023-03-03T17:35:28.722Z,2.53
2023-03-03T17:38:06.761Z,2.67
2023-03-03T17:40:52.853Z,2.57
2023-03-03T17:43:52.598Z,2.53
2023-03-03T17:46:32.085Z,2.41
2023-03-03T17:49:08.846Z,2.33
2023-03-03T17:52:13.285Z,2.35
2023-03-03T17:55:06.659Z,2.27
2023-03-03T17:57:34.262Z,2.13
2023-03-03T18:00:04.755Z,2.07
2023-03-03T18:02:51.014Z,2.15
2023-03-03T18:05:52.821Z,2.16
2023-03-03T18:08:48.313Z,2.17
2023-03-03T18:11:16.033Z,2.10
2023-03-03T18:14:07.205Z,2.12
2023-03-03T18:17:12.347Z,2.19
2023-03-03T18:19:59.340Z,2.17
2023-03-03T18:22:32.214Z,2.20
2023-03-03T18:25:14.757Z,2.26
2023-03-03T18:28:05.382Z,2.36
2023-03-03T18:30:59.517Z,2.40
2023-03-03T18:33:43.874Z,2.47
2023-03-03T18:36:15.940Z,2.41
2023-03-03T18:38:48.602Z,2.36
2023-03-03T18:41:27.843Z,2.33
2023-03-03T18:44:30.597Z,2.37
2023-03-03T18:46:59.124Z,2.25
2023-03-03T18:49:48.004Z,2.25
2023-03-03T18:52:23.585Z,2.08
2023-03-03T18:55:11.307Z,2.11
2023-03-03T18:57:40.275Z,1.95
2023-03-03T19:00:28.633Z,1.96
2023-03-03T19:02:58.756Z,1.79
2023-03-03T19:05:34.602Z,1.68
2023-03-03T19:08:14.989Z,1.62
2023-03-03T19:11:03.265Z,1.61
2023-03-03T19:13:33.743Z,1.54
2023-03-03T19:16:02.469Z,1.44
2023-03-03T19:18:53.643Z,1.38
2023-03-03T19:21:36.289Z,1.34
2023-03-03T19:24:26.864Z,1.25
2023-03-03T19:27:03.543Z,1.23
2023-03-03T19:29:46.544Z,1.23
2023-03-03T19:32:20.219Z,1.16
2023-03-03T19:34:57.001Z,1.05
2023-03-03T19:37:52.210Z,1.07
2023-03-03T19:40:34.385Z,0.97
2023-03-03T19:43:14.022Z,0.90
2023-03-03T19:46:23.033Z,0.94
2023-03-03T19:49:01.359Z,0.88
2023-03-03T19:51:51.494Z,0.81
2023-03-03T19:54:44.217Z,0.78
2023-03-03T19:57:20.793Z,0.78
2023-03-03T19:59:58.405Z,0.75
2023-03-03T20:02:28.821Z,0.87
2023-03-03T20:04:56.210Z,0.71
2023-03-03T20:07:30.038Z,0.65
2023-03-03T20:10:30.014Z,0.69
2023-03-03T20:13:06.963Z,0.58
2023-03-03T20:15:38.309Z,0.58
2023-03-03T20:18:24.109Z,0.59
2023-03-03T20:21:36.920Z,0.65
2023-03-03T20:24:41.715Z,0.66
2023-03-03T20:27:19.854Z,0.60
2023-03-03T20:30:21.413Z,0.69
2023-03-03T20:33:14.826Z,0.73
2023-03-03T20:36:00.967Z,0.72
2023-03-03T20:38:52.016Z,0.78
2023-03-03T20:41:50.109Z,0.91
2023-03-03T20:44:23.746Z,0.90
2023-03-03T20:47:17.675Z,0.98
2023-03-03T20:50:15.748Z,1.07
2023-03-03T20:52:52.174Z,1.01
2023-03-03T20:55:24.030Z,1.07
2023-03-03T20:58:18.251Z,1.18
2023-03-03T21:01:04.331Z,1.15
2023-03-03T21:03:43.431Z,1.20
2023-03-03T21:06:15.911Z,1.25
2023-03-03T21:08:57.751Z,1.33
2023-03-03T21:11:31.157Z,1.24
2023-03-03T21:14:00.004Z,1.22
2023-03-03T21:16:30.990Z,1.25
2023-03-03T21:19:13.062Z,1.26
2023-03-03T21:21:46.324Z,1.23
2023-03-03T21:24:19.706Z,1.23
2023-03-03T21:26:47.714Z,1.31
2023-03-03T21:29:22.712Z,1.30
2023-03-03T21:31:56.971Z,1.34
2023-03-03T21:34:27.422Z,1.32
2023-03-03T21:36:56.529Z,1.30
2023-03-03T21:39:32.999Z,1.34
2023-03-03T21:42:04.984Z,1.31
2023-03-03T21:44:51.328Z,1.35
2023-03-03T21:47:28.771Z,1.32
2023-03-03T21:49:56.429Z,1.30
2023-03-03T21:52:24.018Z,1.27
2023-03-03T21:54:55.175Z,1.27
2023-03-03T21:57:22.899Z,1.26
2023-03-03T21:59:50.465Z,1.28
2023-03-03T22:02:18.422Z,1.28
2023-03-03T22:04:46.132Z,1.26
2023-03-03T22:07:13.675Z,1.27
2023-03-03T22:09:41.351Z,1.24
2023-03-03T22:12:08.990Z,1.25
2023-03-03T22:14:36.650Z,1.26
2023-03-03T22:17:05.411Z,1.25
2023-03-03T22:19:34.386Z,1.22
2023-03-03T22:22:04.537Z,1.22
2023-03-03T22:24:32.386Z,1.21
2023-03-03T22:27:00.117Z,1.24
2023-03-03T22:29:28.066Z,1.23
2023-03-03T22:31:58.926Z,1.24
2023-03-03T22:34:29.795Z,1.25
2023-03-03T22:36:57.445Z,1.25
2023-03-03T22:39:24.940Z,1.26
2023-03-03T22:41:55.214Z,1.29
2023-03-03T22:44:23.022Z,1.25
2023-03-03T22:46:50.601Z,1.24
2023-03-03T22:49:18.247Z,1.20
2023-03-03T22:51:46.503Z,1.19
2023-03-03T22:54:13.983Z,1.17
2023-03-03T22:56:41.625Z,1.15
2023-03-03T22:59:11.486Z,1.14
2023-03-03T23:01:39.096Z,1.17
2023-03-03T23:04:06.692Z,1.18
2023-03-03T23:06:34.319Z,1.19
2023-03-03T23:09:02.077Z,1.18
2023-03-03T23:11:29.693Z,1.20
2023-03-03T23:13:57.316Z,1.22
2023-03-03T23:16:25.136Z,1.17
2023-03-03T23:18:52.733Z,1.09
2023-03-03T23:21:20.271Z,1.08
2023-03-03T23:23:47.757Z,1.09
2023-03-03T23:26:15.304Z,1.05
2023-03-03T23:28:42.920Z,0.98
2023-03-03T23:31:10.581Z,0.89
2023-03-03T23:33:38.121Z,0.88
2023-03-03T23:36:06.166Z,0.89
2023-03-03T23:38:33.615Z,0.86
2023-03-03T23:41:01.218Z,0.77
2023-03-03T23:43:28.825Z,0.77
2023-03-03T23:45:56.460Z,0.73
2023-03-03T23:48:24.073Z,0.77
2023-03-03T23:50:51.809Z,0.78
2023-03-03T23:53:19.575Z,0.82
2023-03-03T23:55:47.363Z,0.83
2023-03-03T23:58:14.905Z,0.82
